Time;durP1;ratioP1;P1;durP2;ratioP2;P2;SDS_P1;SDS_P2;PMS_P1;PMS_P2;Temp;Humidity;BMP_temperature;BMP_pressure;BME280_temperature;BME280_humidity;BME280_pressure;Samples;Min_cycle;Max_cycle;Signal;HPM_P1;HPM_P2
2023/05/23 00:02:29;;;;;;;37.80;15.18;;;13.40;99.90;;;;;;4879654;29;40203;-83
2023/05/23 00:05:06;;;;;;;30.63;13.18;;;13.40;99.90;;;;;;4873887;29;39815;-83
2023/05/23 00:07:33;;;;;;;38.28;14.88;;;13.30;99.90;;;;;;4868321;29;51489;-82
2023/05/23 00:10:22;;;;;;;42.35;15.35;;;13.20;99.90;;;;;;4882698;29;39607;-83
2023/05/23 00:12:51;;;;;;;30.45;12.77;;;13.30;99.90;;;;;;4884189;29;49002;-82
2023/05/23 00:18:45;;;;;;;28.85;13.10;;;13.20;99.90;;;;;;4872276;29;49136;-83
2023/05/23 00:21:16;;;;;;;27.00;13.07;;;13.20;99.90;;;;;;4850175;29;40333;-84
2023/05/23 00:24:08;;;;;;;30.40;13.45;;;13.20;99.90;;;;;;4856597;29;40237;-83
2023/05/23 00:26:44;;;;;;;29.10;12.48;;;13.20;99.90;;;;;;4853834;29;49297;-83
2023/05/23 00:29:15;;;;;;;24.90;13.15;;;13.30;99.90;;;;;;4874917;29;38782;-83
2023/05/23 00:31:47;;;;;;;28.77;12.70;;;13.20;99.90;;;;;;4844179;29;39065;-83
2023/05/23 00:37:12;;;;;;;23.77;11.90;;;13.20;99.90;;;;;;4876665;29;41503;-82
2023/05/23 00:39:40;;;;;;;23.48;12.75;;;13.30;99.90;;;;;;4865173;29;37198;-82
2023/05/23 00:42:32;;;;;;;22.30;10.77;;;13.20;99.90;;;;;;4878578;29;40115;-83
2023/05/23 00:45:08;;;;;;;21.95;9.98;;;13.20;99.90;;;;;;4876611;29;39548;-83
2023/05/23 00:47:38;;;;;;;23.48;10.73;;;13.20;99.90;;;;;;4859192;29;50299;-84
2023/05/23 00:50:13;;;;;;;19.48;10.23;;;13.20;99.90;;;;;;4859587;29;36632;-83
2023/05/23 00:52:50;;;;;;;17.60;8.98;;;13.30;99.90;;;;;;4832956;29;49539;-82
2023/05/23 00:55:20;;;;;;;19.77;9.23;;;13.20;99.90;;;;;;4838087;29;38883;-83
2023/05/23 00:58:02;;;;;;;17.15;8.20;;;13.30;99.90;;;;;;4846298;29;39719;-85
2023/05/23 06:40:28;;;;;;;12.50;3.85;;;12.50;99.90;;;;;;5637066;23;20096;-80
2023/05/23 06:42:54;;;;;;;14.70;4.13;;;12.40;99.90;;;;;;4954378;23;38620;-80
2023/05/23 06:45:21;;;;;;;12.95;3.50;;;12.50;99.90;;;;;;4873879;29;38570;-80
2023/05/23 06:47:48;;;;;;;9.85;3.00;;;12.40;99.90;;;;;;4877816;29;37101;-79
2023/05/23 06:50:25;;;;;;;13.15;3.75;;;12.50;99.90;;;;;;4877838;29;39209;-81
2023/05/23 06:55:32;;;;;;;16.17;3.88;;;12.70;99.90;;;;;;5193896;23;20046;-80
2023/05/23 07:00:37;;;;;;;12.35;2.72;;;12.70;99.90;;;;;;5029416;23;19935;-79
2023/05/23 07:10:51;;;;;;;12.13;2.97;;;12.60;99.90;;;;;;5760761;23;20050;-80
2023/05/23 07:30:00;;;;;;;11.02;2.75;;;13.50;99.90;;;;;;5315096;23;20042;-83
2023/05/23 07:32:51;;;;;;;13.32;3.00;;;14.00;99.90;;;;;;4869115;29;49618;-79
2023/05/23 07:35:22;;;;;;;16.75;3.88;;;14.50;99.90;;;;;;4851997;29;41161;-85
2023/05/23 07:37:49;;;;;;;19.42;3.97;;;14.70;99.90;;;;;;4842308;29;35429;-88
2023/05/23 07:40:15;;;;;;;19.98;3.75;;;15.00;99.90;;;;;;4833596;29;38921;-91
2023/05/23 07:42:41;;;;;;;16.05;3.65;;;15.60;99.90;;;;;;4837483;29;39793;-87
2023/05/23 07:45:08;;;;;;;24.58;3.85;;;15.60;99.90;;;;;;4840065;29;38429;-84
2023/05/23 07:47:34;;;;;;;13.68;3.03;;;15.50;99.90;;;;;;4833489;29;36343;-88
2023/05/23 07:50:01;;;;;;;64.43;6.93;;;15.90;99.90;;;;;;4842192;29;38945;-89
2023/05/23 07:52:31;;;;;;;18.20;4.10;;;15.90;99.90;;;;;;4826260;29;36602;-78
2023/05/23 07:54:58;;;;;;;15.80;3.33;;;15.40;99.90;;;;;;4852500;29;37343;-83
2023/05/23 07:57:24;;;;;;;26.40;3.78;;;15.00;99.90;;;;;;4844162;29;37630;-88
2023/05/23 07:59:51;;;;;;;15.65;3.55;;;15.00;99.90;;;;;;4842253;29;37932;-86
2023/05/23 08:02:18;;;;;;;21.52;3.78;;;14.90;99.90;;;;;;4842626;29;38536;-86
2023/05/23 08:04:45;;;;;;;20.23;4.30;;;14.70;99.90;;;;;;4837593;29;38476;-84
2023/05/23 08:07:11;;;;;;;24.55;4.55;;;14.60;99.90;;;;;;4841631;29;37353;-81
2023/05/23 08:09:39;;;;;;;15.40;3.75;;;14.60;99.90;;;;;;4860055;29;37470;-78
2023/05/23 08:12:06;;;;;;;17.10;3.72;;;14.90;99.90;;;;;;4840487;29;37933;-85
2023/05/23 08:14:32;;;;;;;15.07;3.25;;;14.70;99.90;;;;;;4843547;29;37597;-83
2023/05/23 08:17:05;;;;;;;24.00;3.45;;;14.50;99.90;;;;;;4855113;29;36955;-84
2023/05/23 08:19:51;;;;;;;14.52;3.58;;;14.40;99.90;;;;;;4874173;29;48883;-83
2023/05/23 08:22:20;;;;;;;17.30;3.10;;;14.70;99.90;;;;;;4852482;29;38812;-87
2023/05/23 08:24:47;;;;;;;26.63;5.70;;;15.00;99.90;;;;;;4846894;29;37616;-85
2023/05/23 08:27:13;;;;;;;17.25;3.42;;;15.00;99.90;;;;;;4842104;29;37428;-86
2023/05/23 08:29:40;;;;;;;18.83;3.40;;;15.20;99.90;;;;;;4836270;29;37941;-87
2023/05/23 08:32:06;;;;;;;23.15;4.07;;;15.30;99.90;;;;;;4838659;29;38125;-86
2023/05/23 08:34:32;;;;;;;21.17;3.38;;;15.00;99.90;;;;;;4847033;29;37525;-84
2023/05/23 08:36:58;;;;;;;18.58;3.15;;;15.00;99.90;;;;;;4839987;29;36258;-79
2023/05/23 08:39:24;;;;;;;21.20;4.30;;;15.40;99.90;;;;;;4838128;29;37491;-92
2023/05/23 08:41:50;;;;;;;20.70;3.60;;;15.50;99.90;;;;;;4837909;29;39091;-88
2023/05/23 08:44:17;;;;;;;17.10;4.13;;;15.20;99.90;;;;;;4832062;29;37404;-89
2023/05/23 08:46:48;;;;;;;18.25;3.70;;;14.80;99.90;;;;;;4844468;29;36391;-87
2023/05/23 08:49:22;;;;;;;22.73;3.97;;;14.80;99.90;;;;;;4842225;29;37858;-88
2023/05/23 08:51:53;;;;;;;16.17;3.65;;;14.80;99.90;;;;;;4844054;29;39201;-89
2023/05/23 08:54:21;;;;;;;20.48;3.97;;;15.40;99.90;;;;;;4837290;29;37796;-87
2023/05/23 08:56:47;;;;;;;13.13;2.85;;;16.20;99.90;;;;;;4838335;29;37187;-88
2023/05/23 08:59:15;;;;;;;16.00;3.28;;;16.80;99.90;;;;;;4839164;29;38110;-88
2023/05/23 09:01:44;;;;;;;16.42;3.80;;;17.00;99.90;;;;;;4837539;29;38648;-85
2023/05/23 09:04:11;;;;;;;15.80;3.55;;;17.20;99.90;;;;;;4839106;29;38475;-85
2023/05/23 09:06:37;;;;;;;15.23;3.67;;;17.10;99.90;;;;;;4843063;29;36060;-88
2023/05/23 09:09:03;;;;;;;16.45;4.20;;;16.90;99.90;;;;;;4842743;29;38513;-89
2023/05/23 09:11:32;;;;;;;20.58;4.07;;;17.20;99.90;;;;;;4838690;29;38770;-86
2023/05/23 09:13:59;;;;;;;15.45;3.85;;;17.40;99.90;;;;;;4838026;29;39126;-85
2023/05/23 09:16:32;;;;;;;16.20;3.95;;;17.50;99.90;;;;;;4839066;29;36180;-84
2023/05/23 09:18:58;;;;;;;13.77;3.50;;;17.70;99.90;;;;;;4838898;29;37623;-83
2023/05/23 09:21:25;;;;;;;50.38;6.28;;;17.80;99.90;;;;;;4834340;29;39925;-84
2023/05/23 09:23:51;;;;;;;32.78;6.47;;;17.90;99.90;;;;;;4833952;29;39959;-84
2023/05/23 09:26:17;;;;;;;23.00;4.18;;;17.70;99.90;;;;;;4835452;29;37336;-85
2023/05/23 09:28:44;;;;;;;67.15;11.00;;;17.60;99.90;;;;;;4853420;29;38712;-84
2023/05/23 09:31:10;;;;;;;30.55;5.28;;;17.60;99.90;;;;;;4838813;29;37808;-83
2023/05/23 09:33:48;;;;;;;27.02;5.07;;;17.50;99.90;;;;;;4836719;29;37656;-85
2023/05/23 09:36:16;;;;;;;13.38;3.53;;;17.80;99.90;;;;;;4840687;29;37632;-85
2023/05/23 09:38:45;;;;;;;16.30;4.15;;;17.60;99.90;;;;;;4839846;29;39746;-82
2023/05/23 09:41:12;;;;;;;19.58;3.17;;;17.90;99.90;;;;;;4832425;29;38792;-83
2023/05/23 09:43:39;;;;;;;13.50;3.22;;;17.90;99.90;;;;;;4835768;29;37834;-81
2023/05/23 09:46:14;;;;;;;15.32;4.00;;;17.90;99.90;;;;;;4829408;29;37117;-80
2023/05/23 09:48:46;;;;;;;12.82;3.70;;;18.20;99.90;;;;;;4848022;29;37653;-80
2023/05/23 09:51:12;;;;;;;13.05;3.38;;;17.70;99.90;;;;;;4836990;29;37716;-83
2023/05/23 09:53:38;;;;;;;17.13;3.65;;;17.40;99.90;;;;;;4836523;29;38673;-82
2023/05/23 09:56:10;;;;;;;18.05;3.40;;;18.00;99.90;;;;;;4835449;29;35774;-81
2023/05/23 09:58:38;;;;;;;18.38;4.03;;;18.40;99.90;;;;;;4830485;29;38349;-78
2023/05/23 10:01:08;;;;;;;20.02;3.47;;;18.90;99.90;;;;;;4831389;29;39613;-78
2023/05/23 10:03:56;;;;;;;18.25;4.68;;;19.20;99.90;;;;;;4830085;29;37247;-80
2023/05/23 10:06:30;;;;;;;17.60;3.75;;;18.60;99.90;;;;;;4830944;29;36208;-77
2023/05/23 10:09:01;;;;;;;18.17;4.03;;;18.10;99.90;;;;;;4834326;29;38251;-81
2023/05/23 10:11:33;;;;;;;15.15;3.30;;;17.80;99.90;;;;;;4834538;29;48510;-80
2023/05/23 10:14:10;;;;;;;11.90;2.78;;;17.80;99.90;;;;;;4838300;29;39243;-82
2023/05/23 10:16:58;;;;;;;13.65;3.03;;;17.60;99.90;;;;;;4839794;29;48095;-80
2023/05/23 10:19:34;;;;;;;11.85;3.25;;;17.10;99.90;;;;;;4830237;29;37836;-82
2023/05/23 10:22:05;;;;;;;13.98;3.78;;;16.90;99.90;;;;;;4837682;29;38586;-86
2023/05/23 10:24:32;;;;;;;19.05;3.15;;;16.60;99.90;;;;;;4837297;29;48212;-83
2023/05/23 10:26:58;;;;;;;13.40;3.20;;;16.30;99.90;;;;;;4834209;29;36923;-82
2023/05/23 10:29:26;;;;;;;12.85;3.20;;;16.50;99.90;;;;;;4833596;29;39033;-83
2023/05/23 10:31:53;;;;;;;15.38;3.88;;;16.70;99.90;;;;;;4848916;29;38940;-85
2023/05/23 10:34:49;;;;;;;13.52;2.92;;;17.30;99.90;;;;;;4828607;29;37921;-86
2023/05/23 10:37:26;;;;;;;12.25;3.08;;;17.90;99.90;;;;;;4836669;29;37025;-85
2023/05/23 10:40:10;;;;;;;10.65;2.83;;;18.30;99.90;;;;;;4839121;29;39478;-82
2023/05/23 10:43:01;;;;;;;14.40;2.60;;;18.60;99.90;;;;;;4870623;29;47341;-85
2023/05/23 10:45:27;;;;;;;12.15;3.65;;;19.00;99.90;;;;;;4847580;29;46691;-82
2023/05/23 10:47:53;;;;;;;15.70;3.05;;;19.30;99.90;;;;;;4858499;29;37752;-83
2023/05/23 10:50:33;;;;;;;12.70;3.25;;;18.70;99.90;;;;;;4853363;29;38577;-84
2023/05/23 10:53:01;;;;;;;16.52;3.45;;;18.10;99.90;;;;;;4850584;29;37825;-82
2023/05/23 10:55:32;;;;;;;13.90;2.72;;;17.70;99.90;;;;;;4848126;29;47125;-81
2023/05/23 10:58:20;;;;;;;18.35;4.45;;;18.10;99.90;;;;;;4855801;29;37362;-80
2023/05/23 11:00:59;;;;;;;18.35;3.83;;;18.50;99.90;;;;;;4860312;29;48888;-82
2023/05/23 11:03:45;;;;;;;8.48;2.75;;;19.00;99.90;;;;;;4850326;29;38107;-82
2023/05/23 11:06:34;;;;;;;13.63;2.75;;;19.20;99.90;;;;;;4850228;29;37384;-83
2023/05/23 11:09:05;;;;;;;15.75;3.53;;;18.40;99.90;;;;;;4859355;29;36256;-86
2023/05/23 11:12:06;;;;;;;11.50;3.42;;;17.40;99.90;;;;;;4848765;29;48140;-84
2023/05/23 11:14:33;;;;;;;15.35;3.60;;;17.50;99.90;;;;;;4813289;29;47145;-83
2023/05/23 11:17:28;;;;;;;10.55;2.75;;;17.80;99.90;;;;;;4848434;29;39496;-82
2023/05/23 11:20:02;;;;;;;16.15;3.90;;;18.10;99.90;;;;;;4857767;29;47778;-82
2023/05/23 11:22:30;;;;;;;9.88;2.40;;;18.00;99.90;;;;;;4855227;29;40739;-83
2023/05/23 11:24:57;;;;;;;11.05;2.88;;;17.50;99.90;;;;;;4849006;29;38241;-80
2023/05/23 11:27:45;;;;;;;15.52;3.47;;;17.70;99.90;;;;;;4859590;29;39009;-83
2023/05/23 11:30:12;;;;;;;13.75;3.55;;;17.70;99.90;;;;;;4864240;29;36797;-84
2023/05/23 11:32:38;;;;;;;8.98;2.60;;;18.10;99.90;;;;;;4863080;29;37625;-82
2023/05/23 11:35:07;;;;;;;11.73;2.70;;;18.20;99.90;;;;;;4855099;29;37982;-83
2023/05/23 11:37:34;;;;;;;10.40;2.63;;;18.50;99.90;;;;;;4864945;29;37713;-78
2023/05/23 11:40:28;;;;;;;11.23;2.83;;;17.80;99.90;;;;;;4855645;29;39269;-83
2023/05/23 11:42:55;;;;;;;12.15;2.83;;;17.40;99.90;;;;;;4855036;29;47104;-84
2023/05/23 11:45:25;;;;;;;12.27;3.08;;;17.90;99.90;;;;;;4853724;29;38972;-82
2023/05/23 11:47:51;;;;;;;11.32;2.88;;;18.10;99.90;;;;;;4857498;29;39229;-81
2023/05/23 11:50:19;;;;;;;11.93;2.92;;;18.10;99.90;;;;;;4862032;29;36183;-88
2023/05/23 11:52:51;;;;;;;14.10;2.92;;;18.10;99.90;;;;;;4858107;29;36444;-85
2023/05/23 11:55:21;;;;;;;13.00;3.00;;;17.70;99.90;;;;;;4857343;29;38744;-88
2023/05/23 11:57:49;;;;;;;11.15;2.45;;;17.40;99.90;;;;;;4844193;29;37660;-85
2023/05/23 12:00:15;;;;;;;14.93;3.00;;;17.90;99.90;;;;;;4847063;29;38729;-83
2023/05/23 12:02:42;;;;;;;12.38;2.85;;;18.60;99.90;;;;;;4848501;29;37542;-85
2023/05/23 12:05:10;;;;;;;11.98;2.70;;;18.50;99.90;;;;;;4853561;29;38866;-87
2023/05/23 12:07:44;;;;;;;17.30;3.05;;;18.00;99.90;;;;;;4851754;29;39297;-84
2023/05/23 12:10:11;;;;;;;13.50;2.70;;;17.80;99.90;;;;;;4848627;29;37339;-85
2023/05/23 12:12:37;;;;;;;15.93;3.33;;;18.00;99.90;;;;;;4843730;29;39276;-89
2023/05/23 12:15:03;;;;;;;13.85;3.50;;;17.90;99.90;;;;;;4844831;29;39082;-86
2023/05/23 12:17:30;;;;;;;14.52;3.20;;;17.60;99.90;;;;;;4861061;29;36368;-86
2023/05/23 12:19:56;;;;;;;20.85;3.30;;;17.50;99.90;;;;;;4854263;29;36846;-90
2023/05/23 12:22:23;;;;;;;9.55;2.65;;;17.70;99.90;;;;;;4851242;29;38876;-85
2023/05/23 12:24:53;;;;;;;10.18;3.28;;;18.00;99.90;;;;;;4858961;29;39037;-85
2023/05/23 12:27:25;;;;;;;9.90;2.50;;;18.10;99.90;;;;;;4845125;29;39031;-84
2023/05/23 12:30:02;;;;;;;14.15;2.90;;;18.20;99.90;;;;;;4844823;29;37829;-88
2023/05/23 12:32:28;;;;;;;16.02;3.15;;;18.10;99.90;;;;;;4865833;29;37683;-85
2023/05/23 12:34:55;;;;;;;15.38;2.63;;;17.50;99.90;;;;;;4858955;29;36379;-89
2023/05/23 12:37:23;;;;;;;11.40;2.80;;;17.70;99.90;;;;;;4844538;29;38803;-86
2023/05/23 12:39:49;;;;;;;13.38;3.50;;;18.20;99.90;;;;;;4841218;29;36371;-84
2023/05/23 12:42:15;;;;;;;14.43;3.45;;;18.10;99.90;;;;;;4838625;29;39073;-83
2023/05/23 12:44:45;;;;;;;25.27;4.03;;;17.70;99.90;;;;;;4857155;29;38747;-82
2023/05/23 12:47:12;;;;;;;14.07;2.75;;;17.70;99.90;;;;;;4870705;29;37877;-86
2023/05/23 12:49:38;;;;;;;13.82;2.97;;;18.00;99.90;;;;;;4858598;29;36379;-84
2023/05/23 12:52:04;;;;;;;11.70;2.85;;;18.30;99.90;;;;;;4849957;29;37765;-84
2023/05/23 12:54:30;;;;;;;10.60;2.47;;;18.50;99.90;;;;;;4859993;29;38063;-84
2023/05/23 12:56:56;;;;;;;11.40;3.00;;;18.90;99.90;;;;;;4855539;29;37989;-82
2023/05/23 12:59:22;;;;;;;15.25;3.55;;;19.00;99.90;;;;;;4866546;29;37502;-85
2023/05/23 13:01:49;;;;;;;14.63;3.35;;;18.70;99.90;;;;;;4850008;29;40478;-84
2023/05/23 13:04:15;;;;;;;15.02;3.17;;;18.50;99.90;;;;;;4845760;29;38091;-84
2023/05/23 13:06:41;;;;;;;14.57;3.30;;;18.30;99.90;;;;;;4832809;29;37512;-82
2023/05/23 13:09:08;;;;;;;13.30;2.38;;;17.90;99.90;;;;;;4847423;29;36846;-86
2023/05/23 13:11:34;;;;;;;16.13;3.40;;;17.80;99.90;;;;;;4856961;29;38460;-89
2023/05/23 13:14:00;;;;;;;11.57;2.60;;;17.70;99.90;;;;;;4858947;29;38210;-82
2023/05/23 13:16:26;;;;;;;10.68;3.00;;;17.60;99.90;;;;;;4860249;29;37624;-80
2023/05/23 13:18:52;;;;;;;13.38;3.25;;;17.90;99.90;;;;;;4850605;29;40168;-85
2023/05/23 13:21:18;;;;;;;11.23;2.67;;;17.90;99.90;;;;;;4844301;29;37888;-85
2023/05/23 13:23:44;;;;;;;9.27;2.50;;;18.00;99.90;;;;;;4854103;29;39599;-83
2023/05/23 13:26:10;;;;;;;15.32;2.60;;;17.70;99.90;;;;;;4857277;29;38503;-85
2023/05/23 13:28:37;;;;;;;11.85;2.42;;;17.60;99.90;;;;;;4840689;29;36608;-83
2023/05/23 13:31:03;;;;;;;9.25;2.50;;;17.90;99.90;;;;;;4845659;29;37742;-83
2023/05/23 13:33:29;;;;;;;11.93;2.92;;;17.70;99.90;;;;;;4842676;29;38204;-88
2023/05/23 13:35:56;;;;;;;12.95;2.33;;;17.30;99.90;;;;;;4841430;29;37251;-86
2023/05/23 13:38:22;;;;;;;13.93;2.58;;;17.30;99.90;;;;;;4841891;29;37372;-89
2023/05/23 13:40:50;;;;;;;12.88;2.95;;;17.50;99.90;;;;;;4846942;29;39305;-85
2023/05/23 13:43:16;;;;;;;13.95;3.33;;;17.90;99.90;;;;;;4845745;29;37431;-87
2023/05/23 13:45:42;;;;;;;13.25;3.42;;;18.00;99.90;;;;;;4863488;29;37688;-84
2023/05/23 13:48:08;;;;;;;10.55;2.22;;;17.90;99.90;;;;;;4854691;29;36999;-82
2023/05/23 13:50:35;;;;;;;11.48;2.45;;;17.50;99.90;;;;;;4845418;29;37671;-85
2023/05/23 13:53:01;;;;;;;13.85;2.60;;;17.30;99.90;;;;;;4845549;29;37614;-83
2023/05/23 13:55:27;;;;;;;8.98;3.03;;;17.40;99.90;;;;;;4852750;29;37906;-83
2023/05/23 13:57:53;;;;;;;13.32;2.42;;;17.50;99.90;;;;;;4844195;29;36090;-85
2023/05/23 14:00:20;;;;;;;10.95;2.30;;;17.10;99.90;;;;;;4841173;29;37493;-84
2023/05/23 14:02:46;;;;;;;20.50;2.90;;;16.70;99.90;;;;;;4856488;29;39814;-84
2023/05/23 14:05:12;;;;;;;18.52;3.25;;;16.90;99.90;;;;;;4846614;29;36845;-84
2023/05/23 14:07:38;;;;;;;14.05;3.03;;;16.80;99.90;;;;;;4847436;29;35611;-86
2023/05/23 14:10:05;;;;;;;14.43;2.95;;;16.90;99.90;;;;;;4859883;29;38639;-86
2023/05/23 14:12:32;;;;;;;10.70;2.58;;;16.80;99.90;;;;;;4851977;29;47304;-85
2023/05/23 14:14:58;;;;;;;12.05;2.42;;;16.90;99.90;;;;;;4862132;29;37735;-86
2023/05/23 14:17:26;;;;;;;12.88;2.45;;;17.20;99.90;;;;;;4846216;29;36015;-85
2023/05/23 14:19:52;;;;;;;12.25;2.58;;;17.50;99.90;;;;;;4846980;29;37788;-86
2023/05/23 14:22:18;;;;;;;10.98;2.10;;;17.40;99.90;;;;;;4843195;29;37373;-86
2023/05/23 14:24:45;;;;;;;10.73;2.40;;;17.40;99.90;;;;;;4847023;29;37285;-85
2023/05/23 14:27:11;;;;;;;15.60;2.67;;;17.40;99.90;;;;;;4853014;29;36721;-86
2023/05/23 14:29:37;;;;;;;9.93;2.15;;;17.50;99.90;;;;;;4843866;29;38935;-85
2023/05/23 14:32:04;;;;;;;12.30;2.65;;;17.20;99.90;;;;;;4841625;29;40274;-84
2023/05/23 14:34:30;;;;;;;9.57;2.70;;;17.30;99.90;;;;;;4844049;29;41259;-84
2023/05/23 14:36:56;;;;;;;11.98;2.47;;;17.20;99.90;;;;;;4859794;29;36687;-85
2023/05/23 14:39:24;;;;;;;12.43;2.65;;;17.20;99.90;;;;;;4852633;29;39504;-83
2023/05/23 14:41:50;;;;;;;11.15;2.45;;;17.30;99.90;;;;;;4844659;29;38146;-83
2023/05/23 14:44:16;;;;;;;11.20;2.47;;;17.50;99.90;;;;;;4838256;29;38934;-85
2023/05/23 14:46:47;;;;;;;8.55;2.45;;;17.70;99.90;;;;;;4838941;29;36335;-85
2023/05/23 14:49:14;;;;;;;11.48;2.58;;;17.40;99.90;;;;;;4838957;29;37978;-85
2023/05/23 14:51:40;;;;;;;12.80;2.47;;;17.20;99.90;;;;;;4847213;29;38057;-85
2023/05/23 14:54:06;;;;;;;11.98;2.50;;;17.20;99.90;;;;;;4851642;29;37447;-85
2023/05/23 14:56:32;;;;;;;11.20;2.20;;;17.10;99.90;;;;;;4843925;29;36996;-84
2023/05/23 14:58:59;;;;;;;10.35;2.08;;;16.90;99.90;;;;;;4863979;29;38575;-83
2023/05/23 15:01:26;;;;;;;13.25;2.33;;;17.10;99.90;;;;;;4845985;29;37539;-84
2023/05/23 15:03:53;;;;;;;7.10;1.95;;;16.80;99.90;;;;;;4836774;29;37775;-84
2023/05/23 15:06:20;;;;;;;15.10;2.83;;;16.60;99.90;;;;;;4835370;29;36066;-84
2023/05/23 15:08:46;;;;;;;10.43;2.45;;;16.80;99.90;;;;;;4855939;29;39225;-79
2023/05/23 15:11:12;;;;;;;14.48;2.13;;;17.10;99.90;;;;;;4856909;29;38501;-84
2023/05/23 15:13:38;;;;;;;14.95;2.80;;;16.80;99.90;;;;;;4842155;29;37474;-89
2023/05/23 15:16:05;;;;;;;13.43;2.58;;;16.70;99.90;;;;;;4853108;29;36565;-86
2023/05/23 15:18:32;;;;;;;9.93;2.20;;;16.90;99.90;;;;;;4849802;29;38514;-85
2023/05/23 15:20:58;;;;;;;14.27;3.15;;;16.90;99.90;;;;;;4838748;29;37828;-86
2023/05/23 15:23:24;;;;;;;6.85;2.50;;;16.80;99.90;;;;;;4841942;29;37519;-84
2023/05/23 15:25:50;;;;;;;11.88;2.30;;;16.70;99.90;;;;;;4848178;29;37571;-87
2023/05/23 15:28:16;;;;;;;11.75;2.30;;;16.60;99.90;;;;;;4854473;29;37694;-86
2023/05/23 15:30:42;;;;;;;15.02;2.80;;;16.50;99.90;;;;;;4845429;29;37420;-85
2023/05/23 15:33:08;;;;;;;10.68;2.63;;;16.60;99.90;;;;;;4852353;29;38017;-84
2023/05/23 15:35:34;;;;;;;10.52;2.58;;;16.90;99.90;;;;;;4842385;29;38289;-84
2023/05/23 15:38:00;;;;;;;12.70;2.67;;;16.80;99.90;;;;;;4846035;29;38705;-85
2023/05/23 15:40:26;;;;;;;9.80;2.78;;;16.60;99.90;;;;;;4859044;29;47371;-85
2023/05/23 15:42:52;;;;;;;9.68;2.28;;;16.70;99.90;;;;;;4866823;29;39666;-86
2023/05/23 15:45:19;;;;;;;13.90;2.20;;;16.40;99.90;;;;;;4845821;29;38140;-84
2023/05/23 15:47:45;;;;;;;12.98;2.97;;;16.40;99.90;;;;;;4856062;29;38148;-87
2023/05/23 15:50:11;;;;;;;12.35;3.00;;;16.50;99.90;;;;;;4854215;29;37360;-88
2023/05/23 15:52:37;;;;;;;11.52;2.28;;;16.50;99.90;;;;;;4861142;29;37711;-87
2023/05/23 15:55:04;;;;;;;12.43;2.95;;;16.60;99.90;;;;;;4856674;29;35743;-89
2023/05/23 15:57:32;;;;;;;10.00;2.75;;;16.60;99.90;;;;;;4851321;29;47564;-90
2023/05/23 15:59:58;;;;;;;12.35;2.45;;;16.60;99.90;;;;;;4856197;29;37919;-90
2023/05/23 16:02:24;;;;;;;10.63;2.30;;;16.20;99.90;;;;;;4848233;29;37753;-90
2023/05/23 16:04:51;;;;;;;13.23;3.08;;;16.00;99.90;;;;;;4850786;29;36150;-87
2023/05/23 16:07:17;;;;;;;12.07;2.85;;;15.80;99.90;;;;;;4848190;29;37893;-90
2023/05/23 16:09:43;;;;;;;9.55;2.47;;;15.90;99.90;;;;;;4846954;29;37822;-90
2023/05/23 16:12:09;;;;;;;10.23;2.65;;;16.10;99.90;;;;;;4863456;29;37323;-89
2023/05/23 16:14:35;;;;;;;12.50;2.85;;;16.20;99.90;;;;;;4854267;29;36323;-88
2023/05/23 16:17:04;;;;;;;17.00;3.10;;;16.10;99.90;;;;;;4857334;29;37935;-87
2023/05/23 16:19:30;;;;;;;10.88;2.53;;;15.80;99.90;;;;;;4852485;29;47071;-90
2023/05/23 16:21:56;;;;;;;15.10;2.58;;;15.70;99.90;;;;;;4868458;29;35912;-89
2023/05/23 16:24:26;;;;;;;15.30;2.10;;;15.50;99.90;;;;;;4865961;29;37289;-89
2023/05/23 16:26:53;;;;;;;20.85;2.92;;;15.40;99.90;;;;;;4856605;29;39371;-86
2023/05/23 16:29:19;;;;;;;10.80;2.13;;;15.60;99.90;;;;;;4862049;29;38848;-87
2023/05/23 16:31:45;;;;;;;11.73;3.03;;;15.80;99.90;;;;;;4860121;29;37457;-87
2023/05/23 16:34:14;;;;;;;14.45;2.50;;;15.60;99.90;;;;;;4855973;29;36107;-88
2023/05/23 16:36:40;;;;;;;12.52;2.88;;;15.50;99.90;;;;;;4868552;29;38678;-89
2023/05/23 16:39:06;;;;;;;12.55;2.90;;;15.40;99.90;;;;;;4869706;29;38539;-83
2023/05/23 16:41:32;;;;;;;11.27;2.63;;;15.40;99.90;;;;;;4854927;29;37244;-88
2023/05/23 16:43:59;;;;;;;13.85;3.47;;;15.40;99.90;;;;;;4869551;29;36744;-89
2023/05/23 16:46:26;;;;;;;16.90;2.83;;;15.30;99.90;;;;;;4859863;29;37987;-87
2023/05/23 16:48:52;;;;;;;15.23;2.70;;;15.30;99.90;;;;;;4851398;29;37974;-90
2023/05/23 16:51:19;;;;;;;12.52;3.03;;;15.20;99.90;;;;;;4869574;29;38915;-90
2023/05/23 16:53:46;;;;;;;11.05;2.65;;;15.20;99.90;;;;;;4858422;29;37064;-87
2023/05/23 16:56:20;;;;;;;9.23;2.35;;;15.10;99.90;;;;;;4861449;29;37194;-88
2023/05/23 16:58:46;;;;;;;16.88;2.70;;;15.00;99.90;;;;;;4867061;29;39448;-88
2023/05/23 17:01:13;;;;;;;15.93;3.10;;;15.00;99.90;;;;;;4856301;29;38690;-90
2023/05/23 17:03:40;;;;;;;11.95;2.63;;;15.10;99.90;;;;;;4855525;29;36430;-86
2023/05/23 17:06:06;;;;;;;10.52;2.75;;;15.10;99.90;;;;;;4845739;29;38839;-89
2023/05/23 17:08:32;;;;;;;12.00;2.38;;;15.00;99.90;;;;;;4852559;29;39483;-85
2023/05/23 17:10:58;;;;;;;11.60;2.90;;;14.80;99.90;;;;;;4854370;29;37508;-88
2023/05/23 17:13:24;;;;;;;14.52;2.63;;;14.80;99.90;;;;;;4849209;29;35949;-88
2023/05/23 17:15:51;;;;;;;15.52;2.58;;;14.80;99.90;;;;;;4866312;29;39835;-86
2023/05/23 17:18:17;;;;;;;8.00;2.15;;;14.80;99.90;;;;;;4856171;29;39834;-87
2023/05/23 17:20:43;;;;;;;13.38;2.28;;;14.80;99.90;;;;;;4854514;29;37468;-87
2023/05/23 17:23:09;;;;;;;8.05;2.25;;;14.80;99.90;;;;;;4858716;29;36103;-87
2023/05/23 17:25:36;;;;;;;12.25;2.53;;;14.70;99.90;;;;;;4855685;29;37930;-86
2023/05/23 17:28:17;;;;;;;8.55;2.10;;;14.60;99.90;;;;;;4863867;29;38190;-85
2023/05/23 17:30:55;;;;;;;15.02;2.65;;;14.40;99.90;;;;;;4866751;29;39076;-85
2023/05/23 17:39:25;;;;;;;11.82;2.72;;;14.40;99.90;;;;;;4838360;29;20061;-81
2023/05/23 17:41:51;;;;;;;13.07;2.40;;;14.30;99.90;;;;;;4831688;29;39079;-80
2023/05/23 17:44:18;;;;;;;12.70;2.67;;;14.30;99.90;;;;;;4834529;29;37680;-81
2023/05/23 17:46:44;;;;;;;10.85;2.50;;;14.20;99.90;;;;;;4825240;29;39236;-80
2023/05/23 17:49:10;;;;;;;13.07;2.10;;;14.10;99.90;;;;;;4827253;29;38385;-80
2023/05/23 17:51:37;;;;;;;15.65;2.63;;;14.00;99.90;;;;;;4832041;29;38794;-80
2023/05/23 17:54:03;;;;;;;9.88;2.55;;;13.90;99.90;;;;;;4815464;29;37338;-80
2023/05/23 17:56:30;;;;;;;12.13;2.67;;;13.90;99.90;;;;;;4818519;29;37063;-79
2023/05/23 17:59:02;;;;;;;12.25;2.42;;;13.90;99.90;;;;;;4845773;29;36803;-80
2023/05/23 18:01:28;;;;;;;9.45;2.42;;;14.00;99.90;;;;;;4826010;29;47262;-80
2023/05/23 18:03:55;;;;;;;12.70;2.38;;;14.00;99.90;;;;;;4832264;29;36724;-79
2023/05/23 18:06:21;;;;;;;11.13;2.50;;;13.80;99.90;;;;;;4822980;29;38239;-77
2023/05/23 18:08:47;;;;;;;9.35;2.05;;;13.70;99.90;;;;;;4839401;29;38549;-81
2023/05/23 18:11:13;;;;;;;13.32;2.35;;;13.80;99.90;;;;;;4836270;29;38808;-80
2023/05/23 18:13:39;;;;;;;12.10;2.45;;;13.70;99.90;;;;;;4840585;29;37062;-80
2023/05/23 18:16:06;;;;;;;15.27;2.53;;;13.70;99.90;;;;;;4841140;29;39708;-79
2023/05/23 18:18:32;;;;;;;10.13;1.95;;;13.50;99.90;;;;;;4848592;29;37734;-77
2023/05/23 18:20:58;;;;;;;10.35;2.22;;;13.40;99.90;;;;;;4853412;29;37967;-78
2023/05/23 18:23:25;;;;;;;15.10;2.88;;;13.20;99.90;;;;;;4850364;29;38667;-78
2023/05/23 18:25:51;;;;;;;8.40;2.03;;;13.20;99.90;;;;;;4848695;29;37865;-78
2023/05/23 18:28:17;;;;;;;13.90;2.70;;;13.20;99.90;;;;;;4847070;29;39631;-78
2023/05/23 18:30:46;;;;;;;14.10;2.20;;;13.20;99.90;;;;;;4847167;29;37933;-78
2023/05/23 18:33:13;;;;;;;11.82;2.40;;;13.10;99.90;;;;;;4859692;29;39020;-79
2023/05/23 18:35:41;;;;;;;15.48;2.10;;;13.00;99.90;;;;;;4849397;29;40049;-79
2023/05/23 18:38:08;;;;;;;16.25;2.15;;;12.90;99.90;;;;;;4859508;29;39255;-79
2023/05/23 18:40:35;;;;;;;14.05;2.50;;;12.90;99.90;;;;;;4870435;29;38423;-79
2023/05/23 18:43:01;;;;;;;11.15;2.45;;;12.90;99.90;;;;;;4868219;29;37708;-78
2023/05/23 18:45:27;;;;;;;14.25;3.28;;;12.90;99.90;;;;;;4863988;29;47850;-77
2023/05/23 18:47:54;;;;;;;12.98;1.95;;;12.80;99.90;;;;;;4863140;29;37807;-78
2023/05/23 18:50:21;;;;;;;16.60;2.78;;;12.70;99.90;;;;;;4867277;29;38563;-79
2023/05/23 18:52:47;;;;;;;22.00;3.20;;;12.60;99.90;;;;;;4872151;29;37708;-79
2023/05/23 18:55:15;;;;;;;15.50;2.85;;;12.60;99.90;;;;;;4875063;29;36350;-78
2023/05/23 18:57:41;;;;;;;13.60;2.35;;;12.50;99.90;;;;;;4883338;29;38190;-79
2023/05/23 19:00:08;;;;;;;17.85;3.75;;;12.40;99.90;;;;;;4875775;29;37707;-79
2023/05/23 19:02:35;;;;;;;16.17;2.95;;;12.40;99.90;;;;;;4872308;29;36339;-79
2023/05/23 19:05:04;;;;;;;12.95;3.47;;;12.40;99.90;;;;;;4870790;29;40214;-79
2023/05/23 19:07:31;;;;;;;13.80;3.05;;;12.50;99.90;;;;;;4863467;29;37567;-78
2023/05/23 19:09:58;;;;;;;12.07;2.33;;;12.50;99.90;;;;;;4874011;29;37469;-79